createdAt,value
2018-06-17T00:01:04.628Z,5.17
2018-06-17T00:03:33.765Z,5.23
2018-06-17T00:06:03.232Z,5.47
2018-06-17T00:08:32.363Z,5.17
2018-06-17T00:11:01.639Z,5.07
2018-06-17T00:13:30.919Z,4.37
2018-06-17T00:16:00.155Z,4.33
2018-06-17T00:18:29.355Z,4.13
2018-06-17T00:20:58.489Z,4.57
2018-06-17T00:23:27.724Z,3.97
2018-06-17T00:25:56.989Z,3.83
2018-06-17T00:28:26.240Z,4.53
2018-06-17T00:30:55.949Z,4.57
2018-06-17T00:33:25.086Z,4.57
2018-06-17T00:35:54.287Z,4.80
2018-06-17T00:38:23.490Z,4.83
2018-06-17T00:40:52.692Z,5.13
2018-06-17T00:43:21.850Z,5.13
2018-06-17T00:45:51.169Z,4.77
2018-06-17T00:48:20.350Z,4.93
2018-06-17T00:50:49.568Z,4.70
2018-06-17T00:53:18.705Z,4.20
2018-06-17T00:55:47.994Z,4.47
2018-06-17T00:58:17.244Z,4.33
2018-06-17T01:00:46.409Z,3.73
2018-06-17T01:03:15.590Z,4.57
2018-06-17T01:05:44.763Z,4.27
2018-06-17T01:08:13.977Z,3.83
2018-06-17T01:10:43.169Z,4.07
2018-06-17T01:13:12.775Z,4.20
2018-06-17T01:15:42.102Z,4.20
2018-06-17T01:18:11.759Z,5.00
2018-06-17T01:20:40.954Z,4.70
2018-06-17T01:23:10.266Z,5.13
2018-06-17T01:25:39.478Z,4.47
2018-06-17T01:28:08.861Z,3.80
2018-06-17T01:30:38.111Z,4.20
2018-06-17T01:33:08.243Z,4.40
2018-06-17T01:35:37.400Z,4.53
2018-06-17T01:38:06.782Z,5.13
2018-06-17T01:40:53.650Z,5.37
2018-06-17T01:43:25.755Z,5.03
2018-06-17T01:45:54.969Z,6.33
2018-06-17T01:48:24.135Z,6.37
2018-06-17T01:50:53.304Z,5.30
2018-06-17T01:53:22.503Z,6.23
2018-06-17T01:55:51.741Z,5.53
2018-06-17T01:58:20.937Z,5.17
2018-06-17T02:00:50.097Z,5.57
2018-06-17T02:03:24.620Z,5.50
2018-06-17T02:05:59.143Z,5.60
2018-06-17T02:08:33.619Z,5.33
2018-06-17T02:11:08.535Z,5.50
2018-06-17T02:13:37.837Z,5.63
2018-06-17T02:16:06.985Z,5.37
2018-06-17T02:18:36.182Z,5.20
2018-06-17T02:21:05.427Z,4.90
2018-06-17T02:23:34.569Z,5.10
2018-06-17T02:26:03.779Z,4.87
2018-06-17T02:28:32.911Z,4.43
2018-06-17T02:31:02.087Z,4.17
2018-06-17T02:33:31.264Z,4.53
2018-06-17T02:36:00.509Z,4.33
2018-06-17T02:38:29.765Z,4.57
2018-06-17T02:40:58.899Z,4.70
2018-06-17T02:43:28.468Z,4.40
2018-06-17T02:46:02.970Z,4.40
2018-06-17T02:48:41.306Z,4.80
2018-06-17T02:51:15.852Z,4.40
2018-06-17T02:53:50.400Z,4.40
2018-06-17T02:56:19.592Z,4.63
2018-06-17T02:58:48.775Z,4.40
2018-06-17T03:01:18.081Z,4.57
2018-06-17T03:03:47.390Z,4.10
2018-06-17T03:06:16.689Z,4.20
2018-06-17T03:08:45.865Z,3.63
2018-06-17T03:11:15.138Z,4.30
2018-06-17T03:13:44.385Z,3.90
2018-06-17T03:16:13.594Z,3.87
2018-06-17T03:18:42.704Z,3.60
2018-06-17T03:21:11.907Z,4.00
2018-06-17T03:23:41.385Z,3.80
2018-06-17T03:26:15.959Z,4.40
2018-06-17T03:28:50.580Z,3.40
2018-06-17T03:31:20.650Z,3.50
2018-06-17T03:33:56.205Z,3.13
2018-06-17T03:36:25.404Z,3.43
2018-06-17T03:38:54.698Z,3.63
2018-06-17T03:41:23.878Z,3.47
2018-06-17T03:43:53.030Z,3.43
2018-06-17T03:46:22.361Z,3.40
2018-06-17T03:48:51.560Z,3.40
2018-06-17T03:51:20.940Z,3.60
2018-06-17T03:53:50.054Z,3.33
2018-06-17T03:56:19.375Z,3.27
2018-06-17T03:58:48.576Z,3.20
2018-06-17T04:01:17.874Z,3.60
2018-06-17T04:03:47.041Z,2.97
2018-06-17T04:06:16.239Z,3.60
2018-06-17T04:08:45.491Z,2.97
2018-06-17T04:11:14.664Z,2.97
2018-06-17T04:13:43.827Z,3.00
2018-06-17T04:16:12.978Z,3.87
2018-06-17T04:18:42.324Z,3.20
2018-06-17T04:21:11.477Z,3.40
2018-06-17T04:23:40.690Z,3.13
2018-06-17T04:26:09.898Z,2.97
2018-06-17T04:28:39.074Z,3.27
2018-06-17T04:31:08.240Z,3.10
2018-06-17T04:33:37.563Z,3.17
2018-06-17T04:36:06.683Z,2.60
2018-06-17T04:38:35.885Z,2.97
2018-06-17T04:41:05.180Z,2.93
2018-06-17T04:43:34.380Z,2.90
2018-06-17T04:46:03.636Z,3.37
2018-06-17T04:48:32.841Z,3.07
2018-06-17T04:51:02.433Z,3.33
2018-06-17T04:53:31.738Z,3.27
2018-06-17T04:56:01.027Z,3.13
2018-06-17T04:58:30.329Z,3.27
2018-06-17T05:00:59.514Z,2.77
2018-06-17T05:03:28.757Z,2.97
2018-06-17T05:05:58.026Z,3.13
2018-06-17T05:08:27.330Z,3.00
2018-06-17T05:10:56.516Z,2.77
2018-06-17T05:13:25.862Z,2.73
2018-06-17T05:15:55.026Z,2.50
2018-06-17T05:18:24.744Z,3.07
2018-06-17T05:20:54.055Z,2.90
2018-06-17T05:23:23.568Z,2.70
2018-06-17T05:25:52.741Z,2.93
2018-06-17T05:28:22.042Z,3.10
2018-06-17T05:30:51.336Z,3.00
2018-06-17T05:33:20.638Z,3.50
2018-06-17T05:35:49.812Z,2.73
2018-06-17T05:38:19.084Z,3.00
2018-06-17T05:40:48.440Z,3.00
2018-06-17T05:43:17.662Z,2.70
2018-06-17T05:45:46.981Z,3.17
2018-06-17T05:48:16.125Z,2.83
2018-06-17T05:50:45.346Z,2.90
2018-06-17T05:53:14.548Z,2.80
2018-06-17T05:55:43.860Z,3.13
2018-06-17T05:58:13.125Z,2.60
2018-06-17T06:00:42.328Z,3.27
2018-06-17T06:03:11.440Z,2.50
2018-06-17T06:05:40.653Z,2.93
2018-06-17T06:08:09.917Z,2.40
2018-06-17T06:10:39.138Z,2.73
2018-06-17T06:13:08.420Z,2.60
2018-06-17T06:15:37.611Z,2.77
2018-06-17T06:18:06.928Z,2.77
2018-06-17T06:20:37.547Z,2.90
2018-06-17T06:23:06.712Z,2.40
2018-06-17T06:25:36.003Z,2.77
2018-06-17T06:28:05.161Z,2.27
2018-06-17T06:30:34.431Z,2.77
2018-06-17T06:33:03.615Z,2.60
2018-06-17T06:35:32.826Z,2.50
2018-06-17T06:38:02.043Z,2.53
2018-06-17T06:40:31.268Z,2.70
2018-06-17T06:43:00.543Z,2.83
2018-06-17T06:45:29.827Z,2.80
2018-06-17T06:47:59.624Z,2.97
2018-06-17T06:50:28.829Z,2.77
2018-06-17T06:52:58.025Z,2.53
2018-06-17T06:55:27.241Z,2.90
2018-06-17T06:57:56.458Z,2.80
2018-06-17T07:00:25.581Z,2.60
2018-06-17T07:03:05.879Z,2.77
2018-06-17T07:05:46.236Z,2.90
2018-06-17T07:08:26.512Z,2.83
2018-06-17T07:10:55.676Z,2.53
2018-06-17T07:13:24.884Z,3.00
2018-06-17T07:16:05.389Z,2.70
2018-06-17T07:18:36.165Z,2.70
2018-06-17T07:21:05.650Z,2.93
2018-06-17T07:23:34.906Z,3.40
2018-06-17T07:26:41.528Z,3.20
2018-06-17T07:29:24.465Z,3.20
2018-06-17T07:31:53.889Z,3.23
2018-06-17T07:34:23.100Z,3.20
2018-06-17T07:36:52.430Z,3.37
2018-06-17T07:40:31.148Z,3.40
2018-06-17T07:43:00.873Z,3.07
2018-06-17T07:45:30.488Z,3.00
2018-06-17T07:48:00.352Z,3.07
2018-06-17T07:51:39.500Z,2.67
2018-06-17T07:54:09.037Z,3.03
2018-06-17T07:56:39.050Z,3.63
2018-06-17T07:59:08.318Z,3.30
2018-06-17T08:01:37.791Z,3.27
2018-06-17T08:04:06.996Z,2.90
2018-06-17T08:06:36.938Z,3.10
2018-06-17T08:09:07.550Z,2.83
2018-06-17T08:11:36.866Z,2.73
2018-06-17T08:14:06.196Z,2.73
2018-06-17T08:16:36.109Z,2.33
2018-06-17T08:19:06.389Z,2.67
2018-06-17T08:21:35.564Z,2.53
2018-06-17T08:24:05.400Z,2.43
2018-06-17T08:26:34.545Z,2.57
2018-06-17T08:29:03.690Z,2.80
2018-06-17T08:31:33.545Z,2.77
2018-06-17T08:34:02.718Z,3.07
2018-06-17T08:36:31.936Z,2.97
2018-06-17T08:39:01.162Z,2.60
2018-06-17T08:41:30.344Z,2.93
2018-06-17T08:43:59.461Z,2.77
2018-06-17T08:46:29.479Z,3.20
2018-06-17T08:48:58.653Z,2.93
2018-06-17T08:51:27.849Z,2.90
2018-06-17T08:53:57.694Z,2.90
2018-06-17T08:56:27.919Z,2.97
2018-06-17T08:58:57.496Z,3.03
2018-06-17T09:01:26.690Z,3.07
2018-06-17T09:03:55.918Z,3.03
2018-06-17T09:06:25.998Z,3.13
2018-06-17T09:08:55.700Z,3.53
2018-06-17T09:11:25.861Z,3.47
2018-06-17T09:13:55.711Z,2.53
2018-06-17T09:16:25.600Z,3.50
2018-06-17T09:18:54.755Z,3.20
2018-06-17T09:21:23.925Z,3.43
2018-06-17T09:23:53.181Z,3.00
2018-06-17T09:26:22.340Z,2.30
2018-06-17T09:28:51.679Z,2.70
2018-06-17T09:31:20.799Z,2.60
2018-06-17T09:33:49.993Z,4.77
2018-06-17T09:36:19.170Z,2.40
2018-06-17T09:38:48.469Z,2.57
2018-06-17T09:41:17.770Z,2.77
2018-06-17T09:43:47.085Z,2.40
2018-06-17T09:46:16.265Z,2.40
2018-06-17T09:48:45.574Z,2.73
2018-06-17T09:51:14.862Z,2.83
2018-06-17T09:53:44.489Z,3.10
2018-06-17T09:56:13.649Z,3.60
2018-06-17T09:58:43.612Z,2.93
2018-06-17T10:01:12.787Z,2.77
2018-06-17T10:03:41.941Z,2.90
2018-06-17T10:06:11.136Z,2.60
2018-06-17T10:08:40.376Z,2.90
2018-06-17T10:11:09.668Z,6.20
2018-06-17T10:13:40.274Z,2.53
2018-06-17T10:16:09.829Z,2.70
2018-06-17T10:18:39.099Z,2.70
2018-06-17T10:21:08.411Z,2.50
2018-06-17T10:23:37.565Z,2.07
2018-06-17T10:26:06.817Z,2.37
2018-06-17T10:28:36.412Z,2.50
2018-06-17T10:31:06.850Z,2.33
2018-06-17T10:33:37.624Z,2.50
2018-06-17T10:36:06.876Z,2.60
2018-06-17T10:38:36.074Z,2.20
2018-06-17T10:41:05.240Z,2.73
2018-06-17T10:43:34.521Z,2.47
2018-06-17T10:46:03.705Z,2.70
2018-06-17T10:48:32.911Z,2.80
2018-06-17T10:51:02.107Z,2.33
2018-06-17T10:53:31.269Z,1.87
2018-06-17T10:56:00.608Z,2.67
2018-06-17T10:58:29.774Z,2.37
2018-06-17T11:00:58.951Z,2.57
2018-06-17T11:03:28.115Z,2.70
2018-06-17T11:05:57.281Z,2.97
2018-06-17T11:08:26.453Z,7.13
2018-06-17T11:10:55.662Z,2.47
2018-06-17T11:13:24.852Z,2.20
2018-06-17T11:15:53.984Z,2.63
2018-06-17T11:18:23.191Z,2.60
2018-06-17T11:20:52.488Z,2.40
2018-06-17T11:23:21.807Z,2.80
2018-06-17T11:25:51.038Z,2.40
2018-06-17T11:28:20.225Z,2.60
2018-06-17T11:30:49.414Z,2.50
2018-06-17T11:33:18.574Z,3.10
2018-06-17T11:35:47.761Z,2.53
2018-06-17T11:38:16.926Z,2.00
2018-06-17T11:40:46.114Z,2.03
2018-06-17T11:43:15.373Z,2.37
2018-06-17T11:45:44.690Z,2.27
2018-06-17T11:48:13.798Z,2.10
2018-06-17T11:50:43.006Z,2.27
2018-06-17T11:53:12.589Z,2.23
2018-06-17T11:55:41.914Z,2.57
2018-06-17T11:58:11.062Z,2.43
2018-06-17T12:00:40.282Z,2.47
2018-06-17T12:03:09.529Z,3.03
2018-06-17T12:05:38.751Z,2.53
2018-06-17T12:08:07.956Z,2.33
2018-06-17T12:10:37.971Z,2.23
2018-06-17T12:13:07.170Z,2.17
2018-06-17T12:15:36.314Z,2.30
2018-06-17T12:18:05.608Z,2.90
2018-06-17T12:20:34.835Z,2.77
2018-06-17T12:23:04.162Z,2.37
2018-06-17T12:25:33.275Z,2.40
2018-06-17T12:28:02.495Z,2.00
2018-06-17T12:30:31.617Z,2.13
2018-06-17T12:33:00.750Z,2.13
2018-06-17T12:35:30.022Z,2.40
2018-06-17T12:37:59.177Z,2.57
2018-06-17T12:40:35.057Z,2.53
2018-06-17T12:43:04.294Z,2.63
2018-06-17T12:45:33.555Z,2.37
2018-06-17T12:48:02.684Z,1.97
2018-06-17T12:50:31.951Z,2.10
2018-06-17T12:53:01.072Z,1.83
2018-06-17T12:55:30.322Z,2.27
2018-06-17T12:58:00.166Z,2.20
2018-06-17T13:00:29.318Z,2.23
2018-06-17T13:02:58.899Z,1.97
2018-06-17T13:05:28.113Z,1.63
2018-06-17T13:07:57.570Z,2.00
2018-06-17T13:10:26.861Z,2.07
2018-06-17T13:12:56.038Z,2.20
2018-06-17T13:15:25.195Z,2.13
2018-06-17T13:17:54.417Z,1.70
2018-06-17T13:20:23.589Z,2.33
2018-06-17T13:22:53.503Z,2.27
2018-06-17T13:25:22.789Z,2.00
2018-06-17T13:27:52.058Z,2.10
2018-06-17T13:30:21.277Z,1.73
2018-06-17T13:32:50.475Z,1.97
2018-06-17T13:35:19.810Z,2.10
2018-06-17T13:37:49.039Z,2.57
2018-06-17T13:40:18.165Z,3.10
2018-06-17T13:42:48.741Z,2.37
2018-06-17T13:45:18.576Z,2.07
2018-06-17T13:47:47.784Z,1.63
2018-06-17T13:50:17.016Z,1.50
2018-06-17T13:52:46.337Z,2.07
2018-06-17T13:55:15.708Z,1.63
2018-06-17T13:57:44.977Z,1.80
2018-06-17T14:00:14.169Z,1.70
2018-06-17T14:02:43.403Z,1.67
2018-06-17T14:05:12.625Z,1.73
2018-06-17T14:07:41.802Z,1.37
2018-06-17T14:10:10.964Z,2.10
2018-06-17T14:12:40.129Z,1.93
2018-06-17T14:15:09.779Z,1.60
2018-06-17T14:17:38.966Z,1.83
2018-06-17T14:20:08.452Z,1.87
2018-06-17T14:22:37.664Z,1.90
2018-06-17T14:25:06.918Z,1.80
2018-06-17T14:27:36.020Z,1.60
2018-06-17T14:30:06.362Z,1.80
2018-06-17T14:32:35.583Z,2.17
2018-06-17T14:35:04.766Z,1.83
2018-06-17T14:37:33.941Z,1.60
2018-06-17T14:40:03.091Z,3.17
2018-06-17T14:42:37.564Z,2.00
2018-06-17T14:45:12.046Z,1.70
2018-06-17T14:47:46.490Z,1.87
2018-06-17T14:50:21.005Z,1.70
2018-06-17T14:52:55.432Z,1.30
2018-06-17T14:55:24.607Z,1.90
2018-06-17T14:57:53.892Z,1.83
2018-06-17T15:00:23.068Z,2.10
2018-06-17T15:02:52.252Z,1.90
2018-06-17T15:05:21.462Z,1.70
2018-06-17T15:07:50.584Z,1.57
2018-06-17T15:10:23.458Z,1.90
2018-06-17T15:12:52.750Z,1.60
2018-06-17T15:15:21.964Z,2.53
2018-06-17T15:17:51.165Z,2.17
2018-06-17T15:20:20.427Z,1.80
2018-06-17T15:22:49.670Z,2.37
2018-06-17T15:25:18.958Z,1.80
2018-06-17T15:27:48.129Z,1.77
2018-06-17T15:30:17.441Z,1.90
2018-06-17T15:32:51.843Z,2.10
2018-06-17T15:35:26.344Z,3.13
2018-06-17T15:38:00.679Z,2.40
2018-06-17T15:40:35.090Z,2.30
2018-06-17T15:43:04.244Z,3.17
2018-06-17T15:45:33.685Z,2.70
2018-06-17T15:48:02.897Z,1.70
2018-06-17T15:50:32.061Z,3.03
2018-06-17T15:53:01.349Z,8.63
2018-06-17T15:55:30.578Z,3.00
2018-06-17T15:58:00.066Z,2.60
2018-06-17T16:00:29.284Z,2.80
2018-06-17T16:02:58.482Z,2.47
2018-06-17T16:05:27.703Z,4.23
2018-06-17T16:07:56.948Z,4.73
2018-06-17T16:10:26.182Z,2.63
2018-06-17T16:13:00.602Z,2.40
2018-06-17T16:15:34.780Z,2.87
2018-06-17T16:18:10.002Z,1.90
2018-06-17T16:20:44.593Z,1.90
2018-06-17T16:23:14.164Z,2.40
2018-06-17T16:25:43.421Z,2.57
2018-06-17T16:28:12.778Z,2.93
2018-06-17T16:30:42.042Z,2.23
2018-06-17T16:33:11.313Z,2.00
2018-06-17T16:35:40.579Z,2.60
2018-06-17T16:38:09.809Z,2.33
2018-06-17T16:40:38.950Z,2.53
2018-06-17T16:43:08.151Z,2.30
2018-06-17T16:45:37.581Z,2.20
2018-06-17T16:48:06.745Z,2.63
2018-06-17T16:50:35.943Z,1.97
2018-06-17T16:53:10.625Z,1.90
2018-06-17T16:55:45.049Z,2.33
2018-06-17T16:58:19.856Z,2.10
2018-06-17T17:00:49.123Z,1.87
2018-06-17T17:03:18.363Z,2.00
2018-06-17T17:05:47.544Z,2.13
2018-06-17T17:08:16.683Z,5.67
2018-06-17T17:10:45.790Z,2.80
2018-06-17T17:13:14.978Z,2.53
2018-06-17T17:15:44.173Z,1.97
2018-06-17T17:18:13.437Z,1.90
2018-06-17T17:20:44.346Z,1.93
2018-06-17T17:23:13.675Z,1.80
2018-06-17T17:25:42.834Z,2.10
2018-06-17T17:28:12.053Z,2.80
2018-06-17T17:30:45.998Z,2.73
2018-06-17T17:33:20.556Z,2.87
2018-06-17T17:35:55.070Z,2.27
2018-06-17T17:39:29.033Z,2.40
2018-06-17T17:41:58.661Z,1.93
2018-06-17T17:44:27.859Z,2.53
2018-06-17T17:47:02.214Z,2.37
2018-06-17T17:49:31.482Z,2.60
2018-06-17T17:52:00.690Z,2.20
2018-06-17T17:54:30.668Z,2.73
2018-06-17T17:56:59.881Z,2.70
2018-06-17T17:59:29.078Z,2.80
2018-06-17T18:01:58.274Z,2.70
2018-06-17T18:04:27.567Z,2.60
2018-06-17T18:06:56.826Z,2.37
2018-06-17T18:09:27.642Z,2.20
2018-06-17T18:11:56.875Z,2.70
2018-06-17T18:14:26.950Z,2.17
2018-06-17T18:16:56.329Z,1.93
2018-06-17T18:19:25.558Z,1.80
2018-06-17T18:21:54.813Z,2.30
2018-06-17T18:24:24.075Z,2.23
2018-06-17T18:26:58.592Z,1.93
2018-06-17T18:29:33.118Z,2.10
2018-06-17T18:32:08.257Z,2.50
2018-06-17T18:34:42.553Z,1.93
2018-06-17T18:37:11.777Z,2.20
2018-06-17T18:39:41.252Z,2.27
2018-06-17T18:42:11.401Z,2.20
2018-06-17T18:44:40.606Z,2.00
2018-06-17T18:47:09.844Z,3.33
2018-06-17T18:49:39.142Z,2.60
2018-06-17T18:52:09.271Z,2.50
2018-06-17T18:54:38.604Z,2.40
2018-06-17T18:57:07.785Z,2.60
2018-06-17T18:59:37.047Z,2.63
2018-06-17T19:02:06.249Z,2.70
2018-06-17T19:04:35.534Z,2.30
2018-06-17T19:07:04.815Z,2.30
2018-06-17T19:09:39.270Z,2.97
2018-06-17T19:12:13.673Z,2.67
2018-06-17T19:14:48.301Z,2.63
2018-06-17T19:17:22.952Z,2.63
2018-06-17T19:19:52.149Z,2.90
2018-06-17T19:22:21.740Z,3.13
2018-06-17T19:24:51.091Z,2.97
2018-06-17T19:27:20.445Z,3.60
2018-06-17T19:29:49.717Z,3.20
2018-06-17T19:32:18.887Z,2.63
2018-06-17T19:34:48.271Z,2.37
2018-06-17T19:37:17.581Z,2.63
2018-06-17T19:39:47.770Z,2.80
2018-06-17T19:42:17.032Z,3.33
2018-06-17T19:44:46.231Z,2.83
2018-06-17T19:47:15.428Z,2.80
2018-06-17T19:49:50.530Z,2.73
2018-06-17T19:52:25.770Z,3.13
2018-06-17T19:55:00.346Z,2.97
2018-06-17T19:57:35.426Z,3.00
2018-06-17T20:00:11.316Z,2.40
2018-06-17T20:02:40.578Z,2.20
2018-06-17T20:05:09.810Z,2.40
2018-06-17T20:07:38.977Z,2.37
2018-06-17T20:10:08.171Z,2.83
2018-06-17T20:12:37.429Z,2.47
2018-06-17T20:15:06.973Z,2.23
2018-06-17T20:17:36.228Z,2.77
2018-06-17T20:20:05.567Z,3.17
2018-06-17T20:22:35.027Z,2.73
2018-06-17T20:25:06.621Z,2.43
2018-06-17T20:27:35.815Z,2.90
2018-06-17T20:30:05.573Z,2.90
2018-06-17T20:32:39.936Z,2.67
2018-06-17T20:35:14.257Z,2.93
2018-06-17T20:37:48.900Z,2.50
2018-06-17T20:41:23.927Z,2.63
2018-06-17T20:43:54.360Z,2.37
2018-06-17T20:46:23.717Z,3.07
2018-06-17T20:48:53.042Z,3.07
2018-06-17T20:51:22.237Z,2.97
2018-06-17T20:53:51.531Z,2.43
2018-06-17T20:56:21.148Z,2.47
2018-06-17T20:58:50.344Z,2.30
2018-06-17T21:01:19.644Z,2.60
2018-06-17T21:03:48.895Z,2.30
2018-06-17T21:06:18.622Z,2.50
2018-06-17T21:08:47.855Z,2.97
2018-06-17T21:11:16.989Z,2.90
2018-06-17T21:13:46.256Z,2.40
2018-06-17T21:16:15.469Z,2.87
2018-06-17T21:18:50.006Z,2.40
2018-06-17T21:21:24.476Z,2.87
2018-06-17T21:23:58.741Z,2.67
2018-06-17T21:26:33.165Z,2.80
2018-06-17T21:29:02.333Z,2.30
2018-06-17T21:31:31.747Z,2.97
2018-06-17T21:34:01.003Z,2.10
2018-06-17T21:36:30.232Z,2.50
2018-06-17T21:38:59.441Z,2.73
2018-06-17T21:41:28.628Z,3.53
2018-06-17T21:43:57.835Z,3.20
2018-06-17T21:46:27.022Z,2.73
2018-06-17T21:48:57.120Z,2.83
2018-06-17T21:51:26.300Z,2.80
2018-06-17T21:53:55.674Z,2.83
2018-06-17T21:56:24.883Z,3.17
2018-06-17T21:58:54.034Z,2.73
2018-06-17T22:01:23.197Z,2.93
2018-06-17T22:03:52.498Z,2.97
2018-06-17T22:06:21.737Z,3.27
2018-06-17T22:08:56.253Z,3.17
2018-06-17T22:11:39.992Z,2.50
2018-06-17T22:14:14.481Z,3.37
2018-06-17T22:16:48.798Z,2.73
2018-06-17T22:19:18.040Z,2.47
2018-06-17T22:21:47.307Z,3.20
2018-06-17T22:24:16.483Z,3.13
2018-06-17T22:26:46.042Z,2.67
2018-06-17T22:29:15.232Z,3.00
2018-06-17T22:31:44.416Z,2.90
2018-06-17T22:34:13.550Z,2.93
2018-06-17T22:36:42.805Z,2.70
2018-06-17T22:39:11.932Z,2.70
2018-06-17T22:41:41.509Z,2.60
2018-06-17T22:44:10.756Z,2.60
2018-06-17T22:46:40.014Z,2.57
2018-06-17T22:49:09.142Z,2.73
2018-06-17T22:51:38.459Z,2.40
2018-06-17T22:54:18.820Z,2.70
2018-06-17T22:56:53.039Z,2.70
2018-06-17T22:59:27.724Z,2.60
2018-06-17T23:02:02.256Z,2.90
2018-06-17T23:04:36.810Z,2.57
2018-06-17T23:07:11.557Z,2.50
2018-06-17T23:09:42.685Z,2.43
2018-06-17T23:12:11.826Z,2.20
2018-06-17T23:14:41.078Z,2.20
2018-06-17T23:17:10.236Z,2.40
2018-06-17T23:19:39.459Z,2.10
2018-06-17T23:22:08.597Z,2.30
2018-06-17T23:24:37.807Z,2.20
2018-06-17T23:27:06.915Z,2.23
2018-06-17T23:29:36.053Z,2.10
2018-06-17T23:32:05.363Z,2.40
2018-06-17T23:34:34.694Z,2.47
2018-06-17T23:37:03.899Z,2.30
2018-06-17T23:39:33.080Z,2.17
2018-06-17T23:42:02.288Z,2.20
2018-06-17T23:44:31.382Z,2.27
2018-06-17T23:47:05.920Z,2.73
2018-06-17T23:49:40.297Z,2.57
2018-06-17T23:52:14.728Z,2.10
2018-06-17T23:54:49.168Z,2.03
2018-06-17T23:57:18.365Z,2.00
2018-06-17T23:59:47.713Z,2.20
